createdAt,value
2023-09-30T00:07:52.949Z,16.8
2023-09-30T00:09:33.625Z,16.8
2023-09-30T00:11:14.154Z,16.8
2023-09-30T00:12:54.677Z,16.8
2023-09-30T00:14:35.175Z,16.8
2023-09-30T00:16:15.719Z,16.8
2023-09-30T00:17:56.293Z,16.8
2023-09-30T00:19:36.850Z,16.8
2023-09-30T00:21:17.495Z,16.8
2023-09-30T00:22:58.024Z,16.8
2023-09-30T00:24:38.649Z,16.8
2023-09-30T00:26:19.134Z,16.8
2023-09-30T00:27:59.651Z,16.8
2023-09-30T00:29:40.091Z,16.8
2023-09-30T00:31:20.666Z,16.8
2023-09-30T00:33:01.281Z,16.8
2023-09-30T00:34:41.771Z,16.8
2023-09-30T00:36:22.433Z,16.8
2023-09-30T00:38:03.141Z,16.8
2023-09-30T00:39:43.697Z,16.8
2023-09-30T00:43:21.566Z,16.8
2023-09-30T00:45:02.058Z,16.8
2023-09-30T00:46:42.727Z,16.8
2023-09-30T00:48:23.559Z,16.8
2023-09-30T00:50:04.123Z,16.8
2023-09-30T00:51:45.727Z,16.8
2023-09-30T00:53:27.281Z,16.8
2023-09-30T00:55:07.888Z,16.8
2023-09-30T00:56:48.376Z,16.8
2023-09-30T00:58:28.864Z,16.8
2023-09-30T01:00:09.481Z,16.8
2023-09-30T01:01:50.180Z,16.8
2023-09-30T01:03:31.154Z,16.8
2023-09-30T01:05:11.764Z,16.8
2023-09-30T01:06:52.232Z,16.8
2023-09-30T01:08:32.723Z,16.8
2023-09-30T01:10:13.224Z,16.8
2023-09-30T01:11:53.712Z,16.8
2023-09-30T01:13:34.162Z,16.8
2023-09-30T01:15:14.723Z,16.8
2023-09-30T01:16:55.190Z,16.8
2023-09-30T01:18:35.736Z,16.8
2023-09-30T01:20:16.186Z,16.8
2023-09-30T01:21:56.650Z,16.8
2023-09-30T01:23:37.198Z,16.8
2023-09-30T01:25:17.670Z,16.8
2023-09-30T01:26:58.142Z,16.8
2023-09-30T01:28:38.565Z,16.8
2023-09-30T01:30:19.133Z,16.8
2023-09-30T01:31:59.773Z,16.8
2023-09-30T01:33:40.385Z,16.8
2023-09-30T01:35:20.912Z,16.8
2023-09-30T01:37:01.372Z,16.8
2023-09-30T01:38:41.938Z,16.8
2023-09-30T01:40:22.454Z,16.8
2023-09-30T01:42:02.954Z,16.8
2023-09-30T01:43:43.389Z,16.8
2023-09-30T01:45:23.948Z,16.8
2023-09-30T01:47:04.504Z,16.8
2023-09-30T01:48:45.072Z,16.8
2023-09-30T01:50:25.637Z,16.8
2023-09-30T01:52:06.077Z,16.8
2023-09-30T01:53:46.771Z,16.8
2023-09-30T01:55:27.306Z,16.8
2023-09-30T01:57:07.841Z,16.8
2023-09-30T01:58:48.415Z,16.8
2023-09-30T02:00:28.893Z,16.8
2023-09-30T02:03:20.131Z,16.8
2023-09-30T02:05:00.647Z,16.8
2023-09-30T02:06:41.208Z,16.8
2023-09-30T02:08:21.716Z,16.8
2023-09-30T02:10:02.249Z,16.8
2023-09-30T02:11:42.767Z,16.8
2023-09-30T02:13:23.235Z,16.8
2023-09-30T02:15:03.681Z,16.8
2023-09-30T02:16:44.359Z,16.8
2023-09-30T02:18:25.006Z,16.8
2023-09-30T02:20:05.449Z,16.8
2023-09-30T02:21:46.008Z,16.8
2023-09-30T02:23:26.461Z,16.8
2023-09-30T02:25:06.954Z,16.8
2023-09-30T02:26:47.440Z,16.8
2023-09-30T02:28:27.940Z,16.8
2023-09-30T02:30:08.410Z,16.8
2023-09-30T02:31:49.038Z,16.8
2023-09-30T02:33:29.814Z,16.8
2023-09-30T02:35:10.278Z,16.8
2023-09-30T02:36:50.791Z,16.8
2023-09-30T02:38:31.286Z,16.8
2023-09-30T02:40:12.480Z,16.8
2023-09-30T02:41:53.020Z,16.8
2023-09-30T02:43:33.473Z,16.8
2023-09-30T02:45:14.147Z,16.8
2023-09-30T02:46:54.675Z,16.8
2023-09-30T02:48:35.275Z,16.8
2023-09-30T02:50:15.836Z,16.8
2023-09-30T02:51:56.267Z,16.8
2023-09-30T02:53:36.716Z,16.8
2023-09-30T02:55:17.199Z,16.8
2023-09-30T02:56:57.620Z,16.8
2023-09-30T02:58:38.085Z,16.8
2023-09-30T03:00:18.749Z,16.8
2023-09-30T03:01:59.511Z,16.8
2023-09-30T03:03:40.073Z,16.8
2023-09-30T03:05:20.628Z,16.8
2023-09-30T03:07:01.099Z,16.8
2023-09-30T03:08:41.644Z,16.8
2023-09-30T03:10:22.114Z,16.8
2023-09-30T03:12:02.549Z,16.8
2023-09-30T03:13:43.024Z,16.8
2023-09-30T03:15:23.454Z,16.8
2023-09-30T03:17:04.001Z,16.8
2023-09-30T03:18:44.552Z,16.8
2023-09-30T03:20:25.089Z,16.8
2023-09-30T03:22:05.575Z,16.8
2023-09-30T03:23:46.038Z,16.8
2023-09-30T03:25:26.521Z,16.8
2023-09-30T03:27:06.936Z,16.8
2023-09-30T03:28:47.396Z,16.8
2023-09-30T03:30:27.976Z,16.8
2023-09-30T03:32:08.488Z,16.8
2023-09-30T03:33:49.278Z,16.8
2023-09-30T03:35:29.847Z,16.8
2023-09-30T03:37:10.620Z,16.8
2023-09-30T03:38:52.069Z,16.8
2023-09-30T03:40:32.731Z,16.8
2023-09-30T03:42:13.295Z,16.8
2023-09-30T03:43:54.268Z,16.8
2023-09-30T03:45:34.934Z,16.8
2023-09-30T03:47:15.408Z,16.8
2023-09-30T03:48:55.950Z,16.8
2023-09-30T03:50:36.416Z,16.8
2023-09-30T03:54:15.888Z,16.8
2023-09-30T03:55:56.463Z,16.8
2023-09-30T03:57:36.988Z,16.8
2023-09-30T03:59:17.545Z,16.8
2023-09-30T04:00:58.344Z,16.8
2023-09-30T04:02:38.987Z,16.8
2023-09-30T04:04:19.769Z,16.8
2023-09-30T04:06:00.292Z,16.8
2023-09-30T04:07:40.935Z,16.8
2023-09-30T04:09:21.399Z,16.8
2023-09-30T04:11:02.466Z,16.8
2023-09-30T04:12:43.168Z,16.8
2023-09-30T04:14:23.691Z,16.8
2023-09-30T04:16:04.332Z,16.8
2023-09-30T04:17:45.014Z,16.8
2023-09-30T04:19:25.461Z,16.8
2023-09-30T04:21:05.928Z,16.8
2023-09-30T04:22:46.371Z,16.8
2023-09-30T04:24:26.951Z,16.8
2023-09-30T04:26:07.594Z,16.8
2023-09-30T04:27:48.250Z,16.8
2023-09-30T04:29:28.770Z,16.8
2023-09-30T04:31:09.621Z,16.8
2023-09-30T04:32:50.325Z,16.8
2023-09-30T04:34:30.828Z,16.8
2023-09-30T04:36:11.381Z,16.8
2023-09-30T04:37:51.909Z,16.8
2023-09-30T04:39:32.472Z,16.8
2023-09-30T04:41:13.053Z,16.8
2023-09-30T04:42:53.678Z,16.8
2023-09-30T04:44:34.149Z,16.8
2023-09-30T04:46:14.768Z,16.8
2023-09-30T04:47:55.546Z,16.8
2023-09-30T04:49:36.015Z,16.8
2023-09-30T04:51:16.597Z,16.8
2023-09-30T04:52:57.196Z,16.8
2023-09-30T04:54:37.825Z,16.8
2023-09-30T04:56:18.482Z,16.8
2023-09-30T04:57:58.925Z,16.8
2023-09-30T04:59:39.361Z,16.8
2023-09-30T05:01:20.002Z,16.8
2023-09-30T05:03:00.864Z,16.8
2023-09-30T05:04:41.651Z,16.8
2023-09-30T05:06:22.430Z,16.8
2023-09-30T05:08:02.992Z,16.8
2023-09-30T05:09:43.680Z,16.8
2023-09-30T05:11:24.216Z,16.8
2023-09-30T05:13:04.708Z,16.8
2023-09-30T05:14:45.216Z,16.8
2023-09-30T05:16:25.886Z,16.8
2023-09-30T05:18:06.629Z,16.8
2023-09-30T05:19:47.091Z,16.8
2023-09-30T05:21:27.752Z,16.8
2023-09-30T05:23:08.524Z,16.8
2023-09-30T05:24:49.368Z,16.8
2023-09-30T05:26:29.867Z,16.8
2023-09-30T05:28:10.453Z,16.8
2023-09-30T05:29:50.959Z,16.8
2023-09-30T05:31:33.632Z,16.8
2023-09-30T05:33:14.305Z,16.8
2023-09-30T05:34:54.880Z,16.8
2023-09-30T05:36:35.436Z,16.8
2023-09-30T05:38:16.047Z,16.8
2023-09-30T05:39:56.736Z,16.8
2023-09-30T05:43:34.853Z,16.8
2023-09-30T05:45:15.439Z,16.8
2023-09-30T05:46:56.003Z,16.8
2023-09-30T05:48:36.653Z,16.7
2023-09-30T05:50:17.293Z,16.7
2023-09-30T05:51:57.857Z,16.7
2023-09-30T05:53:38.351Z,16.6
2023-09-30T05:55:18.910Z,16.7
2023-09-30T05:56:59.363Z,16.7
2023-09-30T05:58:39.809Z,16.8
2023-09-30T06:00:20.318Z,16.4
2023-09-30T06:02:00.900Z,16.3
2023-09-30T06:03:41.750Z,16.1
2023-09-30T06:05:22.437Z,16
2023-09-30T06:07:02.889Z,15.9
2023-09-30T06:08:43.367Z,15.9
2023-09-30T06:10:23.846Z,15.9
2023-09-30T06:12:04.381Z,15.9
2023-09-30T06:13:44.922Z,15.9
2023-09-30T06:15:25.899Z,15.9
2023-09-30T06:17:06.347Z,15.9
2023-09-30T06:18:46.887Z,15.8
2023-09-30T06:20:28.214Z,15.9
2023-09-30T06:22:09.237Z,15.9
2023-09-30T06:23:49.727Z,15.9
2023-09-30T06:25:30.346Z,15.9
2023-09-30T06:27:10.913Z,15.9
2023-09-30T06:28:51.431Z,15.9
2023-09-30T06:30:33.425Z,15.9
2023-09-30T06:32:13.947Z,15.9
2023-09-30T06:33:54.482Z,15.9
2023-09-30T06:35:35.041Z,15.9
2023-09-30T06:37:15.893Z,15.9
2023-09-30T06:38:56.686Z,15.9
2023-09-30T06:40:42.425Z,16
2023-09-30T06:42:23.025Z,16.1
2023-09-30T06:44:03.459Z,16.1
2023-09-30T06:45:45.106Z,16.2
2023-09-30T06:47:25.671Z,16.3
2023-09-30T06:49:06.221Z,16.3
2023-09-30T06:50:46.748Z,16.4
2023-09-30T06:52:27.362Z,16.4
2023-09-30T06:54:07.832Z,16.5
2023-09-30T06:55:48.387Z,16.6
2023-09-30T06:57:29.015Z,16.6
2023-09-30T06:59:09.506Z,16.6
2023-09-30T07:00:50.097Z,16.6
2023-09-30T07:02:30.723Z,16.6
2023-09-30T07:04:11.506Z,16.6
2023-09-30T07:05:52.066Z,16.6
2023-09-30T07:07:32.504Z,16.6
2023-09-30T07:09:12.985Z,16.6
2023-09-30T07:10:53.423Z,16.6
2023-09-30T07:12:34.209Z,16.6
2023-09-30T07:14:14.800Z,16.6
2023-09-30T07:15:55.641Z,16.6
2023-09-30T07:17:36.788Z,16.5
2023-09-30T07:19:17.312Z,16.5
2023-09-30T07:20:57.871Z,16.5
2023-09-30T07:23:18.771Z,16.5
2023-09-30T07:25:00.361Z,16.4
2023-09-30T07:26:40.943Z,16.4
2023-09-30T07:28:21.437Z,16.4
2023-09-30T07:30:01.998Z,16.5
2023-09-30T07:30:19.064Z,16.5
2023-09-30T07:32:00.239Z,16.5
2023-09-30T07:33:41.055Z,16.5
2023-09-30T07:35:21.560Z,16.5
2023-09-30T07:37:02.187Z,16.5
2023-09-30T07:38:42.745Z,16.5
2023-09-30T07:40:23.232Z,16.6
2023-09-30T07:42:03.810Z,16.6
2023-09-30T07:43:44.399Z,16.6
2023-09-30T07:45:25.012Z,16.6
2023-09-30T07:47:05.705Z,16.6
2023-09-30T07:48:46.322Z,16.6
2023-09-30T07:50:26.882Z,16.6
2023-09-30T07:52:07.361Z,16.6
2023-09-30T07:53:47.903Z,16.6
2023-09-30T07:55:28.430Z,16.6
2023-09-30T07:57:08.917Z,16.6
2023-09-30T07:58:49.398Z,16.7
2023-09-30T08:00:29.923Z,16.7
2023-09-30T08:03:23.539Z,16.7
2023-09-30T08:05:04.050Z,16.7
2023-09-30T08:06:44.601Z,16.7
2023-09-30T08:08:25.063Z,16.7
2023-09-30T08:10:05.532Z,16.8
2023-09-30T08:11:46.190Z,16.8
2023-09-30T08:13:26.633Z,16.8
2023-09-30T08:15:07.637Z,16.8
2023-09-30T08:16:48.264Z,16.8
2023-09-30T08:18:28.789Z,16.8
2023-09-30T08:20:09.332Z,16.8
2023-09-30T08:21:50.212Z,16.8
2023-09-30T08:23:30.701Z,16.8
2023-09-30T08:25:11.195Z,16.8
2023-09-30T08:26:51.720Z,16.8
2023-09-30T08:28:32.186Z,16.8
2023-09-30T08:30:12.974Z,16.8
2023-09-30T08:31:53.728Z,16.8
2023-09-30T08:33:34.365Z,16.8
2023-09-30T08:35:15.036Z,16.8
2023-09-30T08:36:55.578Z,16.8
2023-09-30T08:38:36.037Z,16.8
2023-09-30T08:40:16.505Z,16.8
2023-09-30T08:41:56.954Z,16.8
2023-09-30T08:43:37.491Z,16.8
2023-09-30T08:45:21.951Z,16.8
2023-09-30T08:47:02.504Z,16.8
2023-09-30T08:48:43.163Z,16.8
2023-09-30T08:50:23.723Z,16.8
2023-09-30T08:52:04.278Z,16.8
2023-09-30T08:53:44.954Z,16.8
2023-09-30T08:55:25.718Z,16.8
2023-09-30T08:57:06.169Z,16.8
2023-09-30T08:58:46.653Z,16.8
2023-09-30T09:00:27.401Z,16.8
2023-09-30T09:02:07.969Z,16.8
2023-09-30T09:03:48.795Z,16.8
2023-09-30T09:05:29.424Z,16.7
2023-09-30T09:07:09.960Z,16.8
2023-09-30T09:08:50.391Z,16.8
2023-09-30T09:10:30.940Z,16.8
2023-09-30T09:12:11.408Z,16.8
2023-09-30T09:13:51.868Z,16.8
2023-09-30T09:15:32.597Z,16.8
2023-09-30T09:17:13.351Z,16.8
2023-09-30T09:18:54.032Z,16.8
2023-09-30T09:20:34.494Z,16.8
2023-09-30T09:22:14.959Z,16.8
2023-09-30T09:23:55.464Z,16.8
2023-09-30T09:25:35.962Z,16.7
2023-09-30T09:27:16.411Z,16.6
2023-09-30T09:28:57.247Z,16.6
2023-09-30T09:30:37.963Z,16.6
2023-09-30T09:32:18.518Z,16.6
2023-09-30T09:33:59.190Z,16.6
2023-09-30T09:35:39.745Z,16.6
2023-09-30T09:37:20.180Z,16.6
2023-09-30T09:39:00.914Z,16.6
2023-09-30T09:40:42.119Z,16.6
2023-09-30T09:42:22.735Z,16.6
2023-09-30T09:44:03.226Z,16.6
2023-09-30T09:45:44.045Z,16.6
2023-09-30T09:47:24.665Z,16.6
2023-09-30T09:49:05.372Z,16.6
2023-09-30T09:50:45.911Z,16.6
2023-09-30T09:54:23.969Z,16.6
2023-09-30T09:56:04.555Z,16.6
2023-09-30T09:57:45.145Z,16.6
2023-09-30T09:59:25.711Z,16.6
2023-09-30T10:01:06.538Z,16.6
2023-09-30T10:02:47.763Z,16.6
2023-09-30T10:04:28.278Z,16.6
2023-09-30T10:06:08.807Z,16.6
2023-09-30T10:07:49.260Z,16.6
2023-09-30T10:09:29.931Z,16.6
2023-09-30T10:11:10.475Z,16.6
2023-09-30T10:12:51.079Z,16.6
2023-09-30T10:14:31.619Z,16.6
2023-09-30T10:16:12.804Z,16.6
2023-09-30T10:17:53.622Z,16.6
2023-09-30T10:19:34.208Z,16.6
2023-09-30T10:21:14.740Z,16.6
2023-09-30T10:22:55.305Z,16.6
2023-09-30T10:24:36.128Z,16.6
2023-09-30T10:26:16.774Z,16.6
2023-09-30T10:27:57.403Z,16.6
2023-09-30T10:29:37.979Z,16.6
2023-09-30T10:31:18.992Z,16.6
2023-09-30T10:32:59.987Z,16.6
2023-09-30T10:34:40.848Z,16.6
2023-09-30T10:36:21.429Z,16.6
2023-09-30T10:38:02.036Z,16.6
2023-09-30T10:39:42.624Z,16.6
2023-09-30T10:41:23.094Z,16.6
2023-09-30T10:43:03.745Z,16.6
2023-09-30T10:44:44.303Z,16.6
2023-09-30T10:46:24.894Z,16.6
2023-09-30T10:48:05.518Z,16.6
2023-09-30T10:49:45.996Z,16.6
2023-09-30T10:51:26.542Z,16.6
2023-09-30T10:53:08.797Z,16.6
2023-09-30T10:54:49.385Z,16.6
2023-09-30T10:56:29.969Z,16.6
2023-09-30T10:58:10.410Z,16.6
2023-09-30T10:59:50.881Z,16.6
2023-09-30T11:01:31.657Z,16.6
2023-09-30T11:03:12.923Z,16.6
2023-09-30T11:04:54.195Z,16.6
2023-09-30T11:06:35.094Z,16.6
2023-09-30T11:08:15.601Z,16.6
2023-09-30T11:09:56.163Z,16.6
2023-09-30T11:11:36.796Z,16.6
2023-09-30T11:13:17.297Z,16.6
2023-09-30T11:14:57.749Z,16.6
2023-09-30T11:16:38.309Z,16.6
2023-09-30T11:18:18.883Z,16.6
2023-09-30T11:19:59.407Z,16.6
2023-09-30T11:21:39.946Z,16.6
2023-09-30T11:23:20.412Z,16.6
2023-09-30T11:25:00.965Z,16.7
2023-09-30T11:26:42.540Z,16.6
2023-09-30T11:28:23.025Z,16.6
2023-09-30T11:30:03.466Z,16.7
2023-09-30T11:31:44.468Z,16.6
2023-09-30T11:33:25.380Z,16.7
2023-09-30T11:35:05.860Z,16.7
2023-09-30T11:36:46.414Z,16.7
2023-09-30T11:38:27.080Z,16.7
2023-09-30T11:40:07.819Z,16.7
2023-09-30T11:43:45.752Z,16.7
2023-09-30T11:45:26.827Z,16.7
2023-09-30T11:47:07.696Z,16.7
2023-09-30T11:48:48.237Z,16.7
2023-09-30T11:50:28.901Z,16.7
2023-09-30T11:52:09.533Z,16.7
2023-09-30T11:53:50.024Z,16.7
2023-09-30T11:55:30.461Z,16.7
2023-09-30T11:57:10.958Z,16.7
2023-09-30T11:58:51.386Z,16.7
2023-09-30T12:00:31.934Z,16.7
2023-09-30T12:02:17.950Z,16.7
2023-09-30T12:04:01.024Z,16.7
2023-09-30T12:05:41.651Z,16.7
2023-09-30T12:07:22.165Z,16.7
2023-09-30T12:09:02.890Z,16.7
2023-09-30T12:10:43.394Z,16.7
2023-09-30T12:12:23.885Z,16.7
2023-09-30T12:14:04.521Z,16.7
2023-09-30T12:15:45.044Z,16.7
2023-09-30T12:17:25.596Z,16.7
2023-09-30T12:19:06.226Z,16.7
2023-09-30T12:20:46.807Z,16.7
2023-09-30T12:22:27.303Z,16.7
2023-09-30T12:24:07.754Z,16.7
2023-09-30T12:26:11.468Z,16.7
2023-09-30T12:27:54.258Z,16.7
2023-09-30T12:29:34.719Z,16.7
2023-09-30T12:31:15.458Z,16.7
2023-09-30T12:32:56.346Z,16.7
2023-09-30T12:34:37.005Z,16.8
2023-09-30T12:36:17.675Z,16.7
2023-09-30T12:37:58.138Z,16.7
2023-09-30T12:39:38.662Z,16.8
2023-09-30T12:41:19.189Z,16.8
2023-09-30T12:42:59.770Z,16.8
2023-09-30T12:44:40.434Z,16.8
2023-09-30T12:46:21.111Z,16.8
2023-09-30T12:48:01.884Z,16.8
2023-09-30T12:49:42.326Z,16.8
2023-09-30T12:51:22.897Z,16.8
2023-09-30T12:53:03.355Z,16.8
2023-09-30T12:54:43.814Z,16.8
2023-09-30T12:56:24.497Z,16.8
2023-09-30T12:58:05.113Z,16.8
2023-09-30T12:59:45.576Z,16.8
2023-09-30T13:01:26.382Z,16.8
2023-09-30T13:03:07.095Z,16.8
2023-09-30T13:04:47.758Z,16.8
2023-09-30T13:06:28.327Z,16.8
2023-09-30T13:08:08.781Z,16.8
2023-09-30T13:09:49.324Z,16.8
2023-09-30T13:11:29.967Z,16.8
2023-09-30T13:13:10.467Z,16.8
2023-09-30T13:14:50.941Z,16.8
2023-09-30T13:16:31.612Z,16.8
2023-09-30T13:18:12.261Z,16.8
2023-09-30T13:19:52.845Z,16.8
2023-09-30T13:21:33.455Z,16.8
2023-09-30T13:23:14.002Z,16.8
2023-09-30T13:24:54.685Z,16.8
2023-09-30T13:26:35.118Z,16.8
2023-09-30T13:28:15.575Z,16.8
2023-09-30T13:29:56.097Z,16.8
2023-09-30T13:31:37.314Z,16.8
2023-09-30T13:31:55.045Z,16.8
2023-09-30T13:33:36.640Z,16.8
2023-09-30T13:35:17.665Z,16.8
2023-09-30T13:36:58.797Z,16.8
2023-09-30T13:38:39.214Z,16.8
2023-09-30T13:40:19.672Z,16.8
2023-09-30T13:42:00.137Z,16.8
2023-09-30T13:43:40.740Z,16.8
2023-09-30T13:45:21.235Z,16.8
2023-09-30T13:47:04.346Z,16.8
2023-09-30T13:48:44.940Z,16.8
2023-09-30T13:50:25.570Z,16.8
2023-09-30T13:52:06.239Z,16.8
2023-09-30T13:53:46.784Z,16.8
2023-09-30T13:55:27.246Z,16.8
2023-09-30T13:57:07.754Z,16.8
2023-09-30T13:58:48.254Z,16.8
2023-09-30T14:00:28.921Z,16.8
2023-09-30T14:03:27.226Z,16.8
2023-09-30T14:05:08.003Z,16.8
2023-09-30T14:06:48.566Z,16.8
2023-09-30T14:08:29.004Z,16.8
2023-09-30T14:10:09.553Z,16.8
2023-09-30T14:11:50.044Z,16.8
2023-09-30T14:13:30.499Z,16.8
2023-09-30T14:15:11.011Z,16.8
2023-09-30T14:16:51.584Z,16.8
2023-09-30T14:18:32.077Z,16.8
2023-09-30T14:20:12.540Z,16.8
2023-09-30T14:21:53.207Z,16.8
2023-09-30T14:23:33.718Z,16.8
2023-09-30T14:25:14.374Z,16.8
2023-09-30T14:26:54.837Z,16.7
2023-09-30T14:28:35.291Z,16.7
2023-09-30T14:30:15.775Z,16.7
2023-09-30T14:31:56.311Z,16.7
2023-09-30T14:33:36.794Z,16.7
2023-09-30T14:35:17.254Z,16.7
2023-09-30T14:36:57.877Z,16.7
2023-09-30T14:38:38.329Z,16.7
2023-09-30T14:40:18.796Z,16.7
2023-09-30T14:41:59.251Z,16.7
2023-09-30T14:43:39.710Z,16.7
2023-09-30T14:45:20.265Z,16.7
2023-09-30T14:47:00.998Z,16.7
2023-09-30T14:48:41.694Z,16.8
2023-09-30T14:50:22.180Z,16.8
2023-09-30T14:52:03.099Z,16.8
2023-09-30T14:53:43.580Z,16.8
2023-09-30T14:55:24.025Z,16.8
2023-09-30T14:57:04.475Z,16.8
2023-09-30T14:58:45.027Z,16.8
2023-09-30T15:00:25.641Z,16.8
2023-09-30T15:02:06.352Z,16.8
2023-09-30T15:03:47.127Z,16.8
2023-09-30T15:05:27.691Z,16.8
2023-09-30T15:07:08.544Z,16.8
2023-09-30T15:08:49.091Z,16.8
2023-09-30T15:10:29.731Z,16.8
2023-09-30T15:12:10.117Z,16.8
2023-09-30T15:13:50.561Z,16.8
2023-09-30T15:15:31.065Z,16.8
2023-09-30T15:17:11.637Z,16.8
2023-09-30T15:18:52.112Z,16.8
2023-09-30T15:20:32.716Z,16.8
2023-09-30T15:22:17.037Z,16.8
2023-09-30T15:23:57.657Z,16.8
2023-09-30T15:25:38.176Z,16.8
2023-09-30T15:27:18.622Z,16.8
2023-09-30T15:28:59.753Z,16.8
2023-09-30T15:30:40.558Z,16.8
2023-09-30T15:32:21.104Z,16.8
2023-09-30T15:34:02.571Z,16.8
2023-09-30T15:35:43.261Z,16.8
2023-09-30T15:37:23.701Z,16.8
2023-09-30T15:39:04.182Z,16.7
2023-09-30T15:40:44.619Z,16.7
2023-09-30T15:42:25.069Z,16.7
2023-09-30T15:44:06.656Z,16.7
2023-09-30T15:45:47.395Z,16.6
2023-09-30T15:47:28.065Z,16.6
2023-09-30T15:49:08.666Z,16.6
2023-09-30T15:50:49.211Z,16.6
2023-09-30T15:52:29.707Z,16.6
2023-09-30T15:54:27.193Z,16.6
2023-09-30T15:56:07.636Z,16.6
2023-09-30T15:57:48.115Z,16.6
2023-09-30T15:59:28.649Z,16.6
2023-09-30T16:01:09.204Z,16.6
2023-09-30T16:02:49.909Z,16.6
2023-09-30T16:04:30.705Z,16.6
2023-09-30T16:06:11.216Z,16.6
2023-09-30T16:07:51.802Z,16.6
2023-09-30T16:09:32.408Z,16.6
2023-09-30T16:11:12.859Z,16.6
2023-09-30T16:12:53.383Z,16.6
2023-09-30T16:14:33.868Z,16.6
2023-09-30T16:16:15.364Z,16.6
2023-09-30T16:17:55.933Z,16.6
2023-09-30T16:19:36.619Z,16.6
2023-09-30T16:21:17.328Z,16.6
2023-09-30T16:22:57.781Z,16.6
2023-09-30T16:24:38.267Z,16.6
2023-09-30T16:26:18.803Z,16.6
2023-09-30T16:28:02.997Z,16.6
2023-09-30T16:29:43.597Z,16.6
2023-09-30T16:31:24.296Z,16.6
2023-09-30T16:33:05.137Z,16.6
2023-09-30T16:34:45.698Z,16.6
2023-09-30T16:36:26.173Z,16.6
2023-09-30T16:38:06.689Z,16.6
2023-09-30T16:39:47.254Z,16.6
2023-09-30T16:41:27.979Z,16.6
2023-09-30T16:43:08.602Z,16.6
2023-09-30T16:44:49.159Z,16.6
2023-09-30T16:46:29.785Z,16.6
2023-09-30T16:48:10.402Z,16.6
2023-09-30T16:49:51.125Z,16.6
2023-09-30T16:51:31.873Z,16.6
2023-09-30T16:53:12.845Z,16.6
2023-09-30T16:54:53.415Z,16.7
2023-09-30T16:56:33.919Z,16.7
2023-09-30T16:58:14.638Z,16.7
2023-09-30T16:59:55.989Z,16.6
2023-09-30T17:01:37.170Z,16.7
2023-09-30T17:03:17.964Z,16.7
2023-09-30T17:04:58.806Z,16.7
2023-09-30T17:06:39.502Z,16.7
2023-09-30T17:08:20.119Z,16.7
2023-09-30T17:10:00.744Z,16.7
2023-09-30T17:11:41.263Z,16.7
2023-09-30T17:13:21.761Z,16.6
2023-09-30T17:15:02.307Z,16.7
2023-09-30T17:16:42.953Z,16.7
2023-09-30T17:18:23.499Z,16.7
2023-09-30T17:20:04.032Z,16.7
2023-09-30T17:21:44.705Z,16.7
2023-09-30T17:23:25.261Z,16.7
2023-09-30T17:25:05.977Z,16.6
2023-09-30T17:26:46.583Z,16.6
2023-09-30T17:28:27.034Z,16.7
2023-09-30T17:30:07.490Z,16.6
2023-09-30T17:31:48.337Z,16.7
2023-09-30T17:33:28.912Z,16.7
2023-09-30T17:35:09.368Z,16.7
2023-09-30T17:36:49.942Z,16.7
2023-09-30T17:38:30.486Z,16.7
2023-09-30T17:40:11.146Z,16.7
2023-09-30T17:43:48.947Z,16.7
2023-09-30T17:45:29.693Z,16.7
2023-09-30T17:47:14.067Z,16.7
2023-09-30T17:48:54.814Z,16.7
2023-09-30T17:50:35.327Z,16.7
2023-09-30T17:52:15.961Z,16.4
2023-09-30T17:53:56.631Z,16.1
2023-09-30T17:55:37.365Z,15.9
2023-09-30T17:57:17.833Z,15.9
2023-09-30T17:58:58.557Z,15.9
2023-09-30T18:00:39.146Z,15.9
2023-09-30T18:02:19.903Z,15.9
2023-09-30T18:04:01.322Z,16.1
2023-09-30T18:05:42.330Z,16.2
2023-09-30T18:07:23.120Z,16.3
2023-09-30T18:09:03.631Z,16.4
2023-09-30T18:10:44.149Z,16.4
2023-09-30T18:12:24.676Z,16.5
2023-09-30T18:14:05.199Z,16.5
2023-09-30T18:15:45.721Z,16.6
2023-09-30T18:17:26.247Z,16.6
2023-09-30T18:19:06.807Z,16.6
2023-09-30T18:20:47.465Z,16.6
2023-09-30T18:22:28.013Z,16.6
2023-09-30T18:24:08.598Z,16.6
2023-09-30T18:25:51.690Z,16.6
2023-09-30T18:27:32.279Z,16.6
2023-09-30T18:29:12.818Z,16.6
2023-09-30T18:30:53.369Z,16.6
2023-09-30T18:32:33.923Z,16.7
2023-09-30T18:34:14.508Z,16.6
2023-09-30T18:35:55.086Z,16.7
2023-09-30T18:37:35.728Z,16.6
2023-09-30T18:39:28.528Z,16.6
2023-09-30T18:41:09.076Z,16.6
2023-09-30T18:42:49.718Z,16.6
2023-09-30T18:44:30.348Z,16.6
2023-09-30T18:46:11.102Z,16.6
2023-09-30T18:47:51.749Z,16.6
2023-09-30T18:49:32.229Z,16.6
2023-09-30T18:51:12.712Z,16.6
2023-09-30T18:52:53.159Z,16.6
2023-09-30T18:54:33.971Z,16.6
2023-09-30T18:56:14.452Z,16.6
2023-09-30T18:57:55.127Z,16.6
2023-09-30T18:59:35.864Z,16.6
2023-09-30T19:01:16.418Z,16.6
2023-09-30T19:02:57.122Z,16.6
2023-09-30T19:04:41.463Z,16.6
2023-09-30T19:06:22.414Z,16.6
2023-09-30T19:08:02.905Z,16.6
2023-09-30T19:09:43.517Z,16.6
2023-09-30T19:11:24.200Z,16.6
2023-09-30T19:13:04.740Z,16.6
2023-09-30T19:14:45.213Z,16.6
2023-09-30T19:16:25.888Z,16.6
2023-09-30T19:18:06.560Z,16.6
2023-09-30T19:19:47.090Z,16.6
2023-09-30T19:21:27.528Z,16.6
2023-09-30T19:23:08.021Z,16.6
2023-09-30T19:24:48.511Z,16.7
2023-09-30T19:26:29.001Z,16.6
2023-09-30T19:28:09.626Z,16.6
2023-09-30T19:29:50.226Z,16.6
2023-09-30T19:31:47.648Z,16.7
2023-09-30T19:33:28.151Z,16.7
2023-09-30T19:35:08.601Z,16.7
2023-09-30T19:36:49.157Z,16.6
2023-09-30T19:38:29.739Z,16.6
2023-09-30T19:40:10.378Z,16.6
2023-09-30T19:41:50.935Z,16.6
2023-09-30T19:43:31.383Z,16.6
2023-09-30T19:45:11.836Z,16.6
2023-09-30T19:46:52.723Z,16.6
2023-09-30T19:48:33.385Z,16.6
2023-09-30T19:50:13.921Z,16.6
2023-09-30T19:51:54.462Z,16.6
2023-09-30T19:53:35.152Z,16.6
2023-09-30T19:55:15.800Z,16.5
2023-09-30T19:56:56.261Z,16.5
2023-09-30T19:58:36.915Z,16.5
2023-09-30T20:00:17.792Z,16.5
2023-09-30T20:01:58.328Z,16.5
2023-09-30T20:03:39.548Z,16.5
2023-09-30T20:05:20.410Z,16.5
2023-09-30T20:07:01.053Z,16.5
2023-09-30T20:08:41.678Z,16.5
2023-09-30T20:10:22.259Z,16.5
2023-09-30T20:12:02.716Z,16.5
2023-09-30T20:13:43.185Z,16.4
2023-09-30T20:15:23.717Z,16.4
2023-09-30T20:17:04.715Z,16.4
2023-09-30T20:18:45.442Z,16.4
2023-09-30T20:20:25.937Z,16.4
2023-09-30T20:22:06.827Z,16.4
2023-09-30T20:23:47.433Z,16.3
2023-09-30T20:25:28.049Z,16.3
2023-09-30T20:27:08.653Z,16.4
2023-09-30T20:28:49.102Z,16.4
2023-09-30T20:30:29.678Z,16.4
2023-09-30T20:32:10.221Z,16.4
2023-09-30T20:33:51.071Z,16.5
2023-09-30T20:35:31.634Z,16.5
2023-09-30T20:37:12.318Z,16.5
2023-09-30T20:38:52.881Z,16.5
2023-09-30T20:40:33.404Z,16.6
2023-09-30T20:42:13.877Z,16.6
2023-09-30T20:43:54.468Z,16.7
2023-09-30T20:45:34.996Z,16.6
2023-09-30T20:47:16.730Z,16.6
2023-09-30T20:48:58.955Z,16.6
2023-09-30T20:50:39.679Z,16.5
2023-09-30T20:52:20.292Z,16.5
2023-09-30T20:54:00.873Z,16.5
2023-09-30T20:55:41.361Z,16.5
2023-09-30T20:57:21.866Z,16.5
2023-09-30T20:59:02.583Z,16.5
2023-09-30T21:00:43.634Z,16.5
2023-09-30T21:03:19.040Z,16.5
2023-09-30T21:04:59.698Z,16.5
2023-09-30T21:06:40.300Z,16.5
2023-09-30T21:08:20.851Z,16.5
2023-09-30T21:10:01.532Z,16.5
2023-09-30T21:11:42.044Z,16.5
2023-09-30T21:13:24.086Z,16.5
2023-09-30T21:15:05.119Z,16.5
2023-09-30T21:16:45.784Z,16.5
2023-09-30T21:18:26.323Z,16.5
2023-09-30T21:20:06.810Z,16.5
2023-09-30T21:21:47.251Z,16.4
2023-09-30T21:23:27.829Z,16.4
2023-09-30T21:25:08.585Z,16.4
2023-09-30T21:26:51.704Z,16.4
2023-09-30T21:28:32.246Z,16.4
2023-09-30T21:30:12.857Z,16.3
2023-09-30T21:31:53.636Z,16.3
2023-09-30T21:33:34.401Z,16.3
2023-09-30T21:35:14.917Z,16.3
2023-09-30T21:36:55.619Z,16.3
2023-09-30T21:38:38.363Z,16.3
2023-09-30T21:40:18.900Z,16.3
2023-09-30T21:41:59.405Z,16.3
2023-09-30T21:43:39.887Z,16.3
2023-09-30T21:45:20.300Z,16.3
2023-09-30T21:47:00.870Z,16.3
2023-09-30T21:48:41.435Z,16.3
2023-09-30T21:50:22.110Z,16.3
2023-09-30T21:52:02.668Z,16.3
2023-09-30T21:53:43.201Z,16.3
2023-09-30T21:55:23.787Z,16.3
2023-09-30T21:57:04.312Z,16.3
2023-09-30T21:58:44.762Z,16.3
2023-09-30T22:00:25.237Z,16.3
2023-09-30T22:02:05.920Z,16.3
2023-09-30T22:03:46.904Z,16.3
2023-09-30T22:05:27.536Z,16.3
2023-09-30T22:07:08.084Z,16.3
2023-09-30T22:08:48.518Z,16.3
2023-09-30T22:10:32.082Z,16.3
2023-09-30T22:12:12.620Z,16.3
2023-09-30T22:13:53.089Z,16.4
2023-09-30T22:15:33.685Z,16.3
2023-09-30T22:17:14.504Z,16.4
2023-09-30T22:18:55.138Z,16.4
2023-09-30T22:20:35.672Z,16.4
2023-09-30T22:22:16.162Z,16.4
2023-09-30T22:23:56.645Z,16.4
2023-09-30T22:25:37.161Z,16.4
2023-09-30T22:27:17.654Z,16.4
2023-09-30T22:28:58.473Z,16.4
2023-09-30T22:30:39.240Z,16.4
2023-09-30T22:32:19.944Z,16.4
2023-09-30T22:34:00.574Z,16.4
2023-09-30T22:35:41.020Z,16.4
2023-09-30T22:37:21.572Z,16.4
2023-09-30T22:39:02.225Z,16.4
2023-09-30T22:40:42.932Z,16.4
2023-09-30T22:42:23.353Z,16.4